sensor_id;sensor_type;location;lat;lon;timestamp;temperature;humidity
4673;DHT22;61885;53.560;9.940;2022-07-24T13:49:10;29.40;1.00
4673;DHT22;61885;53.560;9.940;2022-07-24T13:51:40;29.90;1.00
4673;DHT22;61885;53.560;9.940;2022-07-24T13:54:09;30.20;1.00
4673;DHT22;61885;53.560;9.940;2022-07-24T13:56:40;30.30;1.00
4673;DHT22;61885;53.560;9.940;2022-07-24T13:59:09;30.30;1.00
4673;DHT22;61885;53.560;9.940;2022-07-24T14:01:38;30.40;1.00
4673;DHT22;61885;53.560;9.940;2022-07-24T14:04:09;30.40;1.00
4673;DHT22;61885;53.560;9.940;2022-07-24T14:06:38;30.40;1.00
4673;DHT22;61885;53.560;9.940;2022-07-24T14:09:07;30.30;1.00
4673;DHT22;61885;53.560;9.940;2022-07-24T14:11:36;30.50;1.00
4673;DHT22;61885;53.560;9.940;2022-07-24T14:14:09;30.50;1.00
4673;DHT22;61885;53.560;9.940;2022-07-24T14:16:37;30.80;1.00
4673;DHT22;61885;53.560;9.940;2022-07-24T14:19:06;30.90;1.00
4673;DHT22;61885;53.560;9.940;2022-07-24T14:21:37;31.10;1.00
4673;DHT22;61885;53.560;9.940;2022-07-24T14:24:06;31.20;1.00
4673;DHT22;61885;53.560;9.940;2022-07-24T14:26:35;31.00;1.00
4673;DHT22;61885;53.560;9.940;2022-07-24T14:29:05;31.50;1.00
4673;DHT22;61885;53.560;9.940;2022-07-24T14:31:33;32.20;1.00
4673;DHT22;61885;53.560;9.940;2022-07-24T14:34:02;32.10;1.00
4673;DHT22;61885;53.560;9.940;2022-07-24T14:36:31;33.10;1.00
4673;DHT22;61885;53.560;9.940;2022-07-24T14:39:02;33.50;1.00
4673;DHT22;61885;53.560;9.940;2022-07-24T14:41:31;33.80;1.00
4673;DHT22;61885;53.560;9.940;2022-07-24T14:44:00;34.40;1.00
4673;DHT22;61885;53.560;9.940;2022-07-24T14:46:29;33.90;1.00
4673;DHT22;61885;53.560;9.940;2022-07-24T14:48:59;34.50;1.00
4673;DHT22;61885;53.560;9.940;2022-07-24T14:51:27;33.40;1.00
4673;DHT22;61885;53.560;9.940;2022-07-24T14:53:56;32.70;1.00
4673;DHT22;61885;53.560;9.940;2022-07-24T14:56:27;33.40;1.00
4673;DHT22;61885;53.560;9.940;2022-07-24T15:01:25;33.20;1.00
4673;DHT22;61885;53.560;9.940;2022-07-24T15:03:53;33.60;1.00
4673;DHT22;61885;53.560;9.940;2022-07-24T15:06:22;34.70;1.00
4673;DHT22;61885;53.560;9.940;2022-07-24T15:08:52;34.50;1.00
4673;DHT22;61885;53.560;9.940;2022-07-24T15:11:20;33.70;1.00
4673;DHT22;61885;53.560;9.940;2022-07-24T15:13:53;34.20;1.00
4673;DHT22;61885;53.560;9.940;2022-07-24T15:16:22;34.40;1.00
4673;DHT22;61885;53.560;9.940;2022-07-24T15:18:50;35.40;1.00
4673;DHT22;61885;53.560;9.940;2022-07-24T15:21:19;35.00;1.00
4673;DHT22;61885;53.560;9.940;2022-07-24T15:23:48;34.60;1.00
4673;DHT22;61885;53.560;9.940;2022-07-24T15:26:16;35.20;1.00
4673;DHT22;61885;53.560;9.940;2022-07-24T15:28:45;35.20;1.00
4673;DHT22;61885;53.560;9.940;2022-07-24T15:31:16;35.10;1.00
4673;DHT22;61885;53.560;9.940;2022-07-24T15:33:47;35.40;1.00
4673;DHT22;61885;53.560;9.940;2022-07-24T15:36:16;34.70;1.00
4673;DHT22;61885;53.560;9.940;2022-07-24T15:38:45;35.30;1.00
4673;DHT22;61885;53.560;9.940;2022-07-24T15:41:13;35.40;1.00
4673;DHT22;61885;53.560;9.940;2022-07-24T15:43:42;35.60;1.00
4673;DHT22;61885;53.560;9.940;2022-07-24T15:46:11;35.40;1.00
4673;DHT22;61885;53.560;9.940;2022-07-24T15:48:42;35.80;1.00
4673;DHT22;61885;53.560;9.940;2022-07-24T15:51:13;35.30;1.00
4673;DHT22;61885;53.560;9.940;2022-07-24T15:53:41;35.40;1.00
4673;DHT22;61885;53.560;9.940;2022-07-24T15:56:10;36.00;1.00
4673;DHT22;61885;53.560;9.940;2022-07-24T15:58:38;35.80;1.00
4673;DHT22;61885;53.560;9.940;2022-07-24T16:01:07;35.20;1.00
4673;DHT22;61885;53.560;9.940;2022-07-24T16:03:36;36.40;1.00
4673;DHT22;61885;53.560;9.940;2022-07-24T16:06:08;35.80;1.00
4673;DHT22;61885;53.560;9.940;2022-07-24T16:08:37;34.90;1.00
4673;DHT22;61885;53.560;9.940;2022-07-24T16:11:05;35.30;1.00
4673;DHT22;61885;53.560;9.940;2022-07-24T16:13:34;35.90;1.00
4673;DHT22;61885;53.560;9.940;2022-07-24T16:16:03;33.60;1.00
4673;DHT22;61885;53.560;9.940;2022-07-24T16:18:32;33.10;1.00
4673;DHT22;61885;53.560;9.940;2022-07-24T16:21:03;33.40;1.00
4673;DHT22;61885;53.560;9.940;2022-07-24T16:23:35;33.30;1.00
4673;DHT22;61885;53.560;9.940;2022-07-24T16:26:04;32.50;1.00
4673;DHT22;61885;53.560;9.940;2022-07-24T16:28:34;32.70;1.00
4673;DHT22;61885;53.560;9.940;2022-07-24T16:31:03;33.20;1.00
4673;DHT22;61885;53.560;9.940;2022-07-24T16:33:32;34.20;1.00
4673;DHT22;61885;53.560;9.940;2022-07-24T16:36:01;34.90;1.00
4673;DHT22;61885;53.560;9.940;2022-07-24T16:38:30;34.90;1.00
4673;DHT22;61885;53.560;9.940;2022-07-24T16:41:01;35.60;1.00
4673;DHT22;61885;53.560;9.940;2022-07-24T16:43:30;35.10;1.00
4673;DHT22;61885;53.560;9.940;2022-07-24T16:45:59;34.50;1.00
4673;DHT22;61885;53.560;9.940;2022-07-24T16:48:28;35.40;1.00
4673;DHT22;61885;53.560;9.940;2022-07-24T16:50:57;35.00;1.00
4673;DHT22;61885;53.560;9.940;2022-07-24T16:53:25;34.80;1.00
4673;DHT22;61885;53.560;9.940;2022-07-24T16:55:54;34.40;1.00
4673;DHT22;61885;53.560;9.940;2022-07-24T16:58:25;35.10;1.00
4673;DHT22;61885;53.560;9.940;2022-07-24T17:00:54;34.70;1.00
4673;DHT22;61885;53.560;9.940;2022-07-24T17:03:23;34.00;1.00
4673;DHT22;61885;53.560;9.940;2022-07-24T17:05:51;34.50;1.00
4673;DHT22;61885;53.560;9.940;2022-07-24T17:08:20;34.70;1.00
4673;DHT22;61885;53.560;9.940;2022-07-24T17:10:49;35.10;1.00
4673;DHT22;61885;53.560;9.940;2022-07-24T17:13:18;35.70;1.00
4673;DHT22;61885;53.560;9.940;2022-07-24T17:15:50;34.90;1.00
4673;DHT22;61885;53.560;9.940;2022-07-24T17:18:19;34.50;1.00
4673;DHT22;61885;53.560;9.940;2022-07-24T17:20:52;33.70;1.00
4673;DHT22;61885;53.560;9.940;2022-07-24T17:23:21;32.70;1.00
4673;DHT22;61885;53.560;9.940;2022-07-24T17:25:50;32.20;1.00
4673;DHT22;61885;53.560;9.940;2022-07-24T17:28:19;32.20;1.00
4673;DHT22;61885;53.560;9.940;2022-07-24T17:30:50;32.70;1.00
4673;DHT22;61885;53.560;9.940;2022-07-24T17:33:19;33.40;1.00
4673;DHT22;61885;53.560;9.940;2022-07-24T17:35:49;34.30;1.00
4673;DHT22;61885;53.560;9.940;2022-07-24T17:38:19;34.10;1.00
4673;DHT22;61885;53.560;9.940;2022-07-24T17:40:48;33.50;1.00
4673;DHT22;61885;53.560;9.940;2022-07-24T17:43:17;33.50;1.00
4673;DHT22;61885;53.560;9.940;2022-07-24T17:45:46;34.40;1.00
4673;DHT22;61885;53.560;9.940;2022-07-24T17:48:17;33.70;1.00
4673;DHT22;61885;53.560;9.940;2022-07-24T17:50:46;34.00;1.00
4673;DHT22;61885;53.560;9.940;2022-07-24T17:53:14;33.50;1.00
4673;DHT22;61885;53.560;9.940;2022-07-24T17:55:43;33.50;1.00
4673;DHT22;61885;53.560;9.940;2022-07-24T17:58:14;33.60;1.00
4673;DHT22;61885;53.560;9.940;2022-07-24T18:00:43;34.30;1.00
4673;DHT22;61885;53.560;9.940;2022-07-24T18:03:11;34.20;1.00
4673;DHT22;61885;53.560;9.940;2022-07-24T18:05:43;33.40;1.00
4673;DHT22;61885;53.560;9.940;2022-07-24T18:08:11;33.80;1.00
4673;DHT22;61885;53.560;9.940;2022-07-24T18:10:40;34.10;1.00
4673;DHT22;61885;53.560;9.940;2022-07-24T18:13:10;33.70;1.00
4673;DHT22;61885;53.560;9.940;2022-07-24T18:15:39;32.50;1.00
4673;DHT22;61885;53.560;9.940;2022-07-24T18:18:07;32.60;1.00
4673;DHT22;61885;53.560;9.940;2022-07-24T18:20:37;33.30;1.00
4673;DHT22;61885;53.560;9.940;2022-07-24T18:23:08;32.30;1.00
4673;DHT22;61885;53.560;9.940;2022-07-24T18:25:37;32.30;1.00
4673;DHT22;61885;53.560;9.940;2022-07-24T18:28:06;31.90;1.00
4673;DHT22;61885;53.560;9.940;2022-07-24T18:30:36;31.60;1.00
4673;DHT22;61885;53.560;9.940;2022-07-24T18:33:04;31.60;1.00
4673;DHT22;61885;53.560;9.940;2022-07-24T18:35:33;31.50;1.00
4673;DHT22;61885;53.560;9.940;2022-07-24T18:38:02;31.30;1.00
4673;DHT22;61885;53.560;9.940;2022-07-24T18:40:33;31.30;1.00
4673;DHT22;61885;53.560;9.940;2022-07-24T18:43:02;31.30;1.00
4673;DHT22;61885;53.560;9.940;2022-07-24T18:45:31;31.10;1.00
4673;DHT22;61885;53.560;9.940;2022-07-24T18:48:00;30.80;1.00
4673;DHT22;61885;53.560;9.940;2022-07-24T18:50:28;30.40;1.00
4673;DHT22;61885;53.560;9.940;2022-07-24T18:52:57;29.70;1.00
4673;DHT22;61885;53.560;9.940;2022-07-24T18:55:27;29.40;1.00
4673;DHT22;61885;53.560;9.940;2022-07-24T18:57:58;29.20;1.00
4673;DHT22;61885;53.560;9.940;2022-07-24T19:00:27;29.10;1.00
4673;DHT22;61885;53.560;9.940;2022-07-24T19:02:55;28.90;1.00
4673;DHT22;61885;53.560;9.940;2022-07-24T19:05:24;28.80;1.00
4673;DHT22;61885;53.560;9.940;2022-07-24T19:07:53;28.80;1.00
4673;DHT22;61885;53.560;9.940;2022-07-24T19:10:21;28.70;1.00
4673;DHT22;61885;53.560;9.940;2022-07-24T19:12:50;28.50;1.00
4673;DHT22;61885;53.560;9.940;2022-07-24T19:15:21;28.40;1.00
4673;DHT22;61885;53.560;9.940;2022-07-24T19:17:54;28.30;1.00
4673;DHT22;61885;53.560;9.940;2022-07-24T19:20:23;28.20;1.00
4673;DHT22;61885;53.560;9.940;2022-07-24T19:22:52;28.00;1.00
4673;DHT22;61885;53.560;9.940;2022-07-24T19:25:20;27.90;1.00
4673;DHT22;61885;53.560;9.940;2022-07-24T19:27:51;27.70;1.00
4673;DHT22;61885;53.560;9.940;2022-07-24T19:30:22;27.50;1.00
4673;DHT22;61885;53.560;9.940;2022-07-24T19:32:51;27.40;1.00
4673;DHT22;61885;53.560;9.940;2022-07-24T19:35:20;27.30;1.00
4673;DHT22;61885;53.560;9.940;2022-07-24T19:37:49;27.20;1.00
4673;DHT22;61885;53.560;9.940;2022-07-24T19:40:17;27.10;1.00
4673;DHT22;61885;53.560;9.940;2022-07-24T19:42:46;27.00;1.00
4673;DHT22;61885;53.560;9.940;2022-07-24T19:45:15;26.80;1.00
4673;DHT22;61885;53.560;9.940;2022-07-24T19:47:46;26.90;1.00
4673;DHT22;61885;53.560;9.940;2022-07-24T19:50:15;26.80;1.00
4673;DHT22;61885;53.560;9.940;2022-07-24T19:52:46;26.70;1.00
4673;DHT22;61885;53.560;9.940;2022-07-24T19:55:15;26.60;1.00
4673;DHT22;61885;53.560;9.940;2022-07-24T19:57:43;26.60;1.00
4673;DHT22;61885;53.560;9.940;2022-07-24T20:00:15;26.50;1.00
4673;DHT22;61885;53.560;9.940;2022-07-24T20:02:46;26.40;1.00
4673;DHT22;61885;53.560;9.940;2022-07-24T20:05:15;26.30;1.00
4673;DHT22;61885;53.560;9.940;2022-07-24T20:07:43;26.40;1.00
4673;DHT22;61885;53.560;9.940;2022-07-24T20:10:12;26.30;1.00
4673;DHT22;61885;53.560;9.940;2022-07-24T20:12:42;26.10;1.00
4673;DHT22;61885;53.560;9.940;2022-07-24T20:15:13;26.10;1.00
4673;DHT22;61885;53.560;9.940;2022-07-24T20:17:41;26.10;1.00
4673;DHT22;61885;53.560;9.940;2022-07-24T20:20:13;26.00;1.00
4673;DHT22;61885;53.560;9.940;2022-07-24T20:22:41;25.90;1.00
4673;DHT22;61885;53.560;9.940;2022-07-24T20:25:10;25.90;1.00
4673;DHT22;61885;53.560;9.940;2022-07-24T20:27:42;25.80;1.00
4673;DHT22;61885;53.560;9.940;2022-07-24T20:30:12;25.80;1.00
4673;DHT22;61885;53.560;9.940;2022-07-24T20:32:41;25.70;1.00
4673;DHT22;61885;53.560;9.940;2022-07-24T20:35:12;25.60;1.00
4673;DHT22;61885;53.560;9.940;2022-07-24T20:37:41;25.60;1.00
4673;DHT22;61885;53.560;9.940;2022-07-24T20:40:10;25.50;1.00
4673;DHT22;61885;53.560;9.940;2022-07-24T20:42:39;25.40;1.00
4673;DHT22;61885;53.560;9.940;2022-07-24T20:45:10;25.40;1.00
4673;DHT22;61885;53.560;9.940;2022-07-24T20:47:38;25.30;1.00
4673;DHT22;61885;53.560;9.940;2022-07-24T20:50:12;25.30;1.00
4673;DHT22;61885;53.560;9.940;2022-07-24T20:52:40;25.30;1.00
4673;DHT22;61885;53.560;9.940;2022-07-24T20:55:09;25.30;1.00
4673;DHT22;61885;53.560;9.940;2022-07-24T20:57:38;25.20;1.00
4673;DHT22;61885;53.560;9.940;2022-07-24T21:00:07;25.20;1.00
4673;DHT22;61885;53.560;9.940;2022-07-24T21:02:37;25.10;1.00
4673;DHT22;61885;53.560;9.940;2022-07-24T21:05:06;25.10;1.00
4673;DHT22;61885;53.560;9.940;2022-07-24T21:07:37;25.00;1.00
4673;DHT22;61885;53.560;9.940;2022-07-24T21:10:09;24.90;1.00
4673;DHT22;61885;53.560;9.940;2022-07-24T21:12:38;24.90;1.00
4673;DHT22;61885;53.560;9.940;2022-07-24T21:15:07;24.90;1.00
4673;DHT22;61885;53.560;9.940;2022-07-24T21:17:36;24.80;1.00
4673;DHT22;61885;53.560;9.940;2022-07-24T21:20:06;24.80;1.00
4673;DHT22;61885;53.560;9.940;2022-07-24T21:22:39;24.70;1.00
4673;DHT22;61885;53.560;9.940;2022-07-24T21:25:08;24.70;1.00
4673;DHT22;61885;53.560;9.940;2022-07-24T21:27:37;24.60;1.00
4673;DHT22;61885;53.560;9.940;2022-07-24T21:30:07;24.60;1.00
4673;DHT22;61885;53.560;9.940;2022-07-24T21:32:35;24.60;1.00
4673;DHT22;61885;53.560;9.940;2022-07-24T21:35:05;24.50;1.00
4673;DHT22;61885;53.560;9.940;2022-07-24T21:37:34;24.50;1.00
4673;DHT22;61885;53.560;9.940;2022-07-24T21:40:06;24.40;1.00
4673;DHT22;61885;53.560;9.940;2022-07-24T21:42:35;24.40;1.00
4673;DHT22;61885;53.560;9.940;2022-07-24T21:45:05;24.30;1.00
4673;DHT22;61885;53.560;9.940;2022-07-24T21:47:33;24.40;1.00
4673;DHT22;61885;53.560;9.940;2022-07-24T21:50:03;24.30;1.00
4673;DHT22;61885;53.560;9.940;2022-07-24T21:52:32;24.30;1.00
4673;DHT22;61885;53.560;9.940;2022-07-24T21:55:00;24.20;1.00
4673;DHT22;61885;53.560;9.940;2022-07-24T21:57:31;24.10;1.00
4673;DHT22;61885;53.560;9.940;2022-07-24T22:02:29;23.70;1.00
4673;DHT22;61885;53.560;9.940;2022-07-24T22:04:58;23.70;1.10
4673;DHT22;61885;53.560;9.940;2022-07-24T22:07:27;23.70;1.20
4673;DHT22;61885;53.560;9.940;2022-07-24T22:09:56;23.70;1.50
4673;DHT22;61885;53.560;9.940;2022-07-24T22:12:25;23.70;2.00
4673;DHT22;61885;53.560;9.940;2022-07-24T22:14:56;23.70;2.10
4673;DHT22;61885;53.560;9.940;2022-07-24T22:17:25;23.60;2.20
4673;DHT22;61885;53.560;9.940;2022-07-24T22:19:54;23.60;2.50
4673;DHT22;61885;53.560;9.940;2022-07-24T22:22:22;23.60;2.90
4673;DHT22;61885;53.560;9.940;2022-07-24T22:24:51;23.60;3.30
4673;DHT22;61885;53.560;9.940;2022-07-24T22:27:20;23.60;3.60
4673;DHT22;61885;53.560;9.940;2022-07-24T22:29:48;23.50;3.70
4673;DHT22;61885;53.560;9.940;2022-07-24T22:32:21;23.50;4.20
4673;DHT22;61885;53.560;9.940;2022-07-24T22:34:51;23.40;4.20
4673;DHT22;61885;53.560;9.940;2022-07-24T22:37:21;23.40;4.30
4673;DHT22;61885;53.560;9.940;2022-07-24T22:39:51;23.40;4.40
4673;DHT22;61885;53.560;9.940;2022-07-24T22:42:20;23.30;4.80
4673;DHT22;61885;53.560;9.940;2022-07-24T22:44:49;23.20;4.60
4673;DHT22;61885;53.560;9.940;2022-07-24T22:47:21;23.10;5.30
4673;DHT22;61885;53.560;9.940;2022-07-24T22:49:50;22.40;5.10
4673;DHT22;61885;53.560;9.940;2022-07-24T22:52:19;23.10;6.50
4673;DHT22;61885;53.560;9.940;2022-07-24T22:54:49;23.10;4.80
4673;DHT22;61885;53.560;9.940;2022-07-24T22:57:18;23.00;5.10
4673;DHT22;61885;53.560;9.940;2022-07-24T22:59:47;23.00;4.60
4673;DHT22;61885;53.560;9.940;2022-07-24T23:02:16;22.90;4.80
4673;DHT22;61885;53.560;9.940;2022-07-24T23:04:47;22.80;5.60
4673;DHT22;61885;53.560;9.940;2022-07-24T23:07:16;22.80;5.80
4673;DHT22;61885;53.560;9.940;2022-07-24T23:09:45;22.80;6.50
4673;DHT22;61885;53.560;9.940;2022-07-24T23:12:13;22.70;6.40
4673;DHT22;61885;53.560;9.940;2022-07-24T23:14:42;22.70;6.50
4673;DHT22;61885;53.560;9.940;2022-07-24T23:17:10;22.70;7.20
4673;DHT22;61885;53.560;9.940;2022-07-24T23:19:39;22.60;6.90
4673;DHT22;61885;53.560;9.940;2022-07-24T23:22:10;22.70;7.60
4673;DHT22;61885;53.560;9.940;2022-07-24T23:24:39;22.60;7.80
4673;DHT22;61885;53.560;9.940;2022-07-24T23:27:08;22.60;8.50
4673;DHT22;61885;53.560;9.940;2022-07-24T23:29:36;22.60;9.30
4673;DHT22;61885;53.560;9.940;2022-07-24T23:32:05;22.50;10.20
4673;DHT22;61885;53.560;9.940;2022-07-24T23:34:33;22.50;10.40
4673;DHT22;61885;53.560;9.940;2022-07-24T23:37:02;22.60;10.80
4673;DHT22;61885;53.560;9.940;2022-07-24T23:39:35;22.50;10.10
4673;DHT22;61885;53.560;9.940;2022-07-24T23:42:05;22.50;10.80
4673;DHT22;61885;53.560;9.940;2022-07-24T23:44:33;22.50;11.50
4673;DHT22;61885;53.560;9.940;2022-07-24T23:47:02;22.40;12.00
4673;DHT22;61885;53.560;9.940;2022-07-24T23:49:31;22.40;12.70
4673;DHT22;61885;53.560;9.940;2022-07-24T23:52:01;22.30;12.80
4673;DHT22;61885;53.560;9.940;2022-07-24T23:54:30;22.30;12.80
4673;DHT22;61885;53.560;9.940;2022-07-24T23:57:02;22.30;13.00
4673;DHT22;61885;53.560;9.940;2022-07-24T23:59:31;22.30;12.30
